createdAt,value
2018-11-23T00:02:27.217Z,20.97
2018-11-23T00:04:54.917Z,20.80
2018-11-23T00:07:22.650Z,19.50
2018-11-23T00:09:50.326Z,20.40
2018-11-23T00:12:18.101Z,21.20
2018-11-23T00:14:45.854Z,19.80
2018-11-23T00:17:13.622Z,20.73
2018-11-23T00:19:41.361Z,20.50
2018-11-23T00:31:56.897Z,20.07
2018-11-23T00:34:24.590Z,20.20
2018-11-23T00:39:19.598Z,19.30
2018-11-23T00:41:47.277Z,20.90
2018-11-23T00:44:15.001Z,21.80
2018-11-23T00:46:42.694Z,20.20
2018-11-23T00:49:10.430Z,20.65
2018-11-23T00:51:38.126Z,20.33
2018-11-23T00:54:05.865Z,22.50
2018-11-23T00:56:33.530Z,22.00
2018-11-23T00:59:01.234Z,22.40
2018-11-23T01:01:33.314Z,20.60
2018-11-23T01:04:01.037Z,21.60
2018-11-23T01:06:28.776Z,22.40
2018-11-23T01:08:56.474Z,24.00
2018-11-23T01:11:24.189Z,23.50
2018-11-23T01:13:51.934Z,23.00
2018-11-23T01:16:19.637Z,23.90
2018-11-23T01:18:47.341Z,22.90
2018-11-23T01:21:15.045Z,24.50
2018-11-23T01:23:42.738Z,25.50
2018-11-23T01:26:10.487Z,23.43
2018-11-23T01:28:38.170Z,25.00
2018-11-23T01:31:05.917Z,25.80
2018-11-23T01:33:33.590Z,25.80
2018-11-23T01:36:01.258Z,24.90
2018-11-23T01:38:29.005Z,25.30
2018-11-23T01:40:56.646Z,25.30
2018-11-23T01:43:24.349Z,26.70
2018-11-23T01:45:52.078Z,26.53
2018-11-23T01:48:19.761Z,27.50
2018-11-23T01:50:47.429Z,27.00
2018-11-23T01:53:15.178Z,25.80
2018-11-23T01:55:42.846Z,28.50
2018-11-23T01:58:11.517Z,27.90
2018-11-23T02:00:39.215Z,26.70
2018-11-23T02:03:06.858Z,27.20
2018-11-23T02:08:01.557Z,28.27
2018-11-23T02:10:29.230Z,27.27
2018-11-23T02:12:56.917Z,29.17
2018-11-23T02:15:24.649Z,27.37
2018-11-23T02:17:52.641Z,30.47
2018-11-23T02:20:21.150Z,28.50
2018-11-23T02:22:48.862Z,29.90
2018-11-23T02:25:16.534Z,30.33
2018-11-23T02:27:44.205Z,28.97
2018-11-23T02:30:12.865Z,29.30
2018-11-23T02:32:40.732Z,29.80
2018-11-23T02:35:08.405Z,30.63
2018-11-23T02:37:36.058Z,28.37
2018-11-23T02:40:03.798Z,29.17
2018-11-23T02:42:31.490Z,31.27
2018-11-23T02:44:59.169Z,31.30
2018-11-23T02:47:26.827Z,32.97
2018-11-23T02:49:54.554Z,32.20
2018-11-23T02:52:22.240Z,32.63
2018-11-23T02:54:49.923Z,31.87
2018-11-23T02:57:17.688Z,33.47
2018-11-23T02:59:45.421Z,31.33
2018-11-23T03:02:13.118Z,34.00
2018-11-23T03:04:40.846Z,32.60
2018-11-23T03:07:08.545Z,32.50
2018-11-23T03:09:36.330Z,34.05
2018-11-23T03:12:04.035Z,34.87
2018-11-23T03:14:32.696Z,33.27
2018-11-23T03:17:00.428Z,34.97
2018-11-23T03:19:28.166Z,30.73
2018-11-23T03:21:55.842Z,31.77
2018-11-23T03:24:23.579Z,31.87
2018-11-23T03:26:51.264Z,33.03
2018-11-23T03:29:19.005Z,33.17
2018-11-23T03:31:47.720Z,32.60
2018-11-23T03:34:15.469Z,32.97
2018-11-23T03:36:43.126Z,32.67
2018-11-23T03:39:10.817Z,32.87
2018-11-23T03:41:38.542Z,34.73
2018-11-23T03:44:06.281Z,34.07
2018-11-23T03:46:33.970Z,34.20
2018-11-23T03:49:01.709Z,34.13
2018-11-23T03:51:29.397Z,31.43
2018-11-23T03:53:57.122Z,34.77
2018-11-23T03:56:24.874Z,33.37
2018-11-23T03:58:52.598Z,35.50
2018-11-23T04:01:20.274Z,32.23
2018-11-23T04:03:48.038Z,33.40
2018-11-23T04:06:15.877Z,36.20
2018-11-23T04:08:43.557Z,34.90
2018-11-23T04:11:11.220Z,34.85
2018-11-23T04:13:38.905Z,36.30
2018-11-23T04:16:06.629Z,34.10
2018-11-23T04:18:34.313Z,35.37
2018-11-23T04:21:02.840Z,34.97
2018-11-23T04:25:59.012Z,34.60
2018-11-23T04:28:26.917Z,34.23
2018-11-23T04:30:54.735Z,34.65
2018-11-23T04:33:22.573Z,34.17
2018-11-23T04:38:17.270Z,34.57
2018-11-23T04:40:45.018Z,37.90
2018-11-23T04:43:12.769Z,37.03
2018-11-23T04:45:40.433Z,36.30
2018-11-23T04:48:08.208Z,36.30
2018-11-23T04:50:35.960Z,36.13
2018-11-23T04:53:03.645Z,35.35
2018-11-23T04:55:31.468Z,34.90
2018-11-23T04:57:59.164Z,35.63
2018-11-23T05:00:26.921Z,34.87
2018-11-23T05:02:54.688Z,34.70
2018-11-23T05:05:22.429Z,36.50
2018-11-23T05:07:50.105Z,35.60
2018-11-23T05:10:18.318Z,35.90
2018-11-23T05:12:46.038Z,36.17
2018-11-23T05:15:14.990Z,36.17
2018-11-23T05:17:43.047Z,35.37
2018-11-23T05:20:11.497Z,36.67
2018-11-23T05:22:39.585Z,35.47
2018-11-23T05:25:09.207Z,35.70
2018-11-23T05:27:37.035Z,36.00
2018-11-23T05:30:06.667Z,35.13
2018-11-23T05:32:34.397Z,35.43
2018-11-23T05:35:02.225Z,35.07
2018-11-23T05:37:29.934Z,37.17
2018-11-23T05:39:57.621Z,37.97
2018-11-23T05:42:25.365Z,37.50
2018-11-23T05:44:53.032Z,37.23
2018-11-23T05:47:20.716Z,36.07
2018-11-23T05:49:48.438Z,38.33
2018-11-23T05:52:16.185Z,37.93
2018-11-23T05:54:43.881Z,37.63
2018-11-23T05:57:11.630Z,37.70
2018-11-23T05:59:39.306Z,35.00
2018-11-23T06:02:06.957Z,38.33
2018-11-23T06:04:34.630Z,36.60
2018-11-23T06:07:02.394Z,36.60
2018-11-23T06:09:30.065Z,37.50
2018-11-23T06:11:57.821Z,36.10
2018-11-23T06:14:25.581Z,36.80
2018-11-23T06:16:53.254Z,37.13
2018-11-23T06:19:21.005Z,35.00
2018-11-23T06:21:48.677Z,36.10
2018-11-23T06:24:16.417Z,35.60
2018-11-23T06:26:44.097Z,37.27
2018-11-23T06:29:11.777Z,37.80
2018-11-23T06:31:39.529Z,36.60
2018-11-23T06:34:07.263Z,36.53
2018-11-23T06:36:34.945Z,35.80
2018-11-23T06:39:02.675Z,38.07
2018-11-23T06:41:30.381Z,36.27
2018-11-23T06:43:58.093Z,35.40
2018-11-23T06:46:25.801Z,36.60
2018-11-23T06:48:53.509Z,34.33
2018-11-23T06:51:21.249Z,35.77
2018-11-23T06:53:50.413Z,36.37
2018-11-23T06:56:18.078Z,38.67
2018-11-23T06:58:45.769Z,38.10
2018-11-23T07:01:13.509Z,35.93
2018-11-23T07:03:41.212Z,35.90
2018-11-23T07:06:08.945Z,36.33
2018-11-23T07:08:36.693Z,36.13
2018-11-23T07:11:04.824Z,37.47
2018-11-23T07:13:33.082Z,36.30
2018-11-23T07:16:00.825Z,37.60
2018-11-23T07:18:29.531Z,36.60
2018-11-23T07:20:57.407Z,37.73
2018-11-23T07:23:25.297Z,34.73
2018-11-23T07:25:53.021Z,35.97
2018-11-23T07:28:20.753Z,37.27
2018-11-23T07:30:48.456Z,34.77
2018-11-23T07:33:16.198Z,37.10
2018-11-23T07:35:43.925Z,34.97
2018-11-23T07:38:11.650Z,33.93
2018-11-23T07:41:48.017Z,33.60
2018-11-23T07:44:15.747Z,33.70
2018-11-23T07:46:43.441Z,32.90
2018-11-23T07:49:11.161Z,34.90
2018-11-23T07:51:39.190Z,33.67
2018-11-23T07:54:06.602Z,34.23
2018-11-23T07:56:34.275Z,34.53
2018-11-23T07:59:02.035Z,34.80
2018-11-23T08:01:29.710Z,35.37
2018-11-23T08:03:57.453Z,34.30
2018-11-23T08:06:25.140Z,34.57
2018-11-23T08:08:52.873Z,34.23
2018-11-23T08:11:20.565Z,33.67
2018-11-23T08:13:48.298Z,35.17
2018-11-23T08:16:15.972Z,34.90
2018-11-23T08:18:43.730Z,35.03
2018-11-23T08:21:11.397Z,35.47
2018-11-23T08:23:39.093Z,34.73
2018-11-23T08:26:06.817Z,33.47
2018-11-23T08:28:34.484Z,35.90
2018-11-23T08:31:02.146Z,35.80
2018-11-23T08:33:29.818Z,37.07
2018-11-23T08:35:57.510Z,36.87
2018-11-23T08:38:25.253Z,36.33
2018-11-23T08:40:53.945Z,36.30
2018-11-23T08:43:21.695Z,34.20
2018-11-23T08:45:49.458Z,34.10
2018-11-23T08:48:17.201Z,35.60
2018-11-23T08:50:44.884Z,33.37
2018-11-23T08:53:12.541Z,32.77
2018-11-23T08:55:40.209Z,35.53
2018-11-23T08:58:11.477Z,34.73
2018-11-23T09:00:39.208Z,35.87
2018-11-23T09:03:06.885Z,34.30
2018-11-23T09:05:34.665Z,34.03
2018-11-23T09:08:03.414Z,33.37
2018-11-23T09:10:31.105Z,34.07
2018-11-23T09:13:00.584Z,31.00
2018-11-23T09:15:29.306Z,32.77
2018-11-23T09:17:57.041Z,33.67
2018-11-23T09:20:26.756Z,33.50
2018-11-23T09:22:54.466Z,33.43
2018-11-23T09:25:22.842Z,35.00
2018-11-23T09:27:50.580Z,32.37
2018-11-23T09:30:21.661Z,32.77
2018-11-23T09:32:50.112Z,33.33
2018-11-23T09:35:17.850Z,32.00
2018-11-23T09:37:45.969Z,30.43
2018-11-23T09:40:16.104Z,31.67
2018-11-23T09:42:43.817Z,31.50
2018-11-23T09:45:14.141Z,31.70
2018-11-23T09:47:41.969Z,31.07
2018-11-23T09:50:11.222Z,29.43
2018-11-23T09:52:39.193Z,30.07
2018-11-23T09:55:07.473Z,29.63
2018-11-23T09:57:35.205Z,28.67
2018-11-23T10:00:02.866Z,29.37
2018-11-23T10:02:30.513Z,30.53
2018-11-23T10:04:58.182Z,29.47
2018-11-23T10:07:25.851Z,28.40
2018-11-23T10:09:53.737Z,29.60
2018-11-23T10:12:21.472Z,28.13
2018-11-23T10:14:49.169Z,29.80
2018-11-23T10:17:16.905Z,29.30
2018-11-23T10:19:44.565Z,28.73
2018-11-23T10:22:12.238Z,25.90
2018-11-23T10:24:39.986Z,26.50
2018-11-23T10:27:08.658Z,26.97
2018-11-23T10:29:36.347Z,26.20
2018-11-23T10:32:04.081Z,26.20
2018-11-23T10:34:31.765Z,26.53
2018-11-23T10:36:59.442Z,27.10
2018-11-23T10:39:27.182Z,26.43
2018-11-23T10:41:54.854Z,26.60
2018-11-23T10:44:22.535Z,26.97
2018-11-23T10:46:50.257Z,26.60
2018-11-23T10:49:17.942Z,27.23
2018-11-23T10:51:45.629Z,25.63
2018-11-23T10:54:13.349Z,25.40
2018-11-23T10:56:41.058Z,25.67
2018-11-23T10:59:08.769Z,25.43
2018-11-23T11:01:42.094Z,25.33
2018-11-23T11:04:15.473Z,28.07
2018-11-23T11:06:49.290Z,25.10
2018-11-23T11:09:17.025Z,26.20
2018-11-23T11:11:44.714Z,25.83
2018-11-23T11:14:12.382Z,27.27
2018-11-23T11:16:40.081Z,26.30
2018-11-23T11:19:08.037Z,26.17
2018-11-23T11:21:35.765Z,26.77
2018-11-23T11:24:03.827Z,27.20
2018-11-23T11:26:31.507Z,26.50
2018-11-23T11:28:59.270Z,27.03
2018-11-23T11:31:27.166Z,27.07
2018-11-23T11:33:54.903Z,26.50
2018-11-23T11:36:22.593Z,27.20
2018-11-23T11:38:50.318Z,28.50
2018-11-23T11:41:17.998Z,28.33
2018-11-23T11:43:45.754Z,28.73
2018-11-23T11:46:13.416Z,27.90
2018-11-23T11:48:41.093Z,28.20
2018-11-23T11:51:09.485Z,27.00
2018-11-23T11:53:37.206Z,29.80
2018-11-23T11:56:05.118Z,28.70
2018-11-23T11:58:32.850Z,28.53
2018-11-23T12:01:00.602Z,28.70
2018-11-23T12:03:29.306Z,28.97
2018-11-23T12:05:56.967Z,29.60
2018-11-23T12:08:24.705Z,28.23
2018-11-23T12:10:52.385Z,29.80
2018-11-23T12:13:20.066Z,30.33
2018-11-23T12:15:47.815Z,31.30
2018-11-23T12:18:15.485Z,29.60
2018-11-23T12:20:43.169Z,30.20
2018-11-23T12:23:10.905Z,30.93
2018-11-23T12:25:38.565Z,30.37
2018-11-23T12:28:06.253Z,31.57
2018-11-23T12:30:34.050Z,30.07
2018-11-23T12:33:02.774Z,29.47
2018-11-23T12:35:30.472Z,30.27
2018-11-23T12:37:58.254Z,32.67
2018-11-23T12:40:25.990Z,32.57
2018-11-23T12:42:53.722Z,31.90
2018-11-23T12:45:22.504Z,32.00
2018-11-23T12:47:50.213Z,31.20
2018-11-23T12:50:19.141Z,32.77
2018-11-23T12:52:46.921Z,30.77
2018-11-23T12:55:15.042Z,31.40
2018-11-23T12:57:42.874Z,32.83
2018-11-23T13:00:16.912Z,33.60
2018-11-23T13:02:44.925Z,34.67
2018-11-23T13:05:13.643Z,31.97
2018-11-23T13:07:41.310Z,33.37
2018-11-23T13:10:09.103Z,31.77
2018-11-23T13:12:36.870Z,32.30
2018-11-23T13:15:04.657Z,34.93
2018-11-23T13:17:32.381Z,34.17
2018-11-23T13:20:01.110Z,34.10
2018-11-23T13:22:29.838Z,34.47
2018-11-23T13:24:57.514Z,34.57
2018-11-23T13:27:25.193Z,35.10
2018-11-23T13:29:52.936Z,34.57
2018-11-23T13:32:20.617Z,32.67
2018-11-23T13:34:48.361Z,36.67
2018-11-23T13:37:16.017Z,36.90
2018-11-23T13:39:43.941Z,35.20
2018-11-23T13:42:12.691Z,36.10
2018-11-23T13:44:40.421Z,37.23
2018-11-23T13:47:08.110Z,36.30
2018-11-23T13:49:35.784Z,36.13
2018-11-23T13:52:03.521Z,36.87
2018-11-23T13:54:31.196Z,35.43
2018-11-23T13:56:58.904Z,36.63
2018-11-23T13:59:26.613Z,35.70
2018-11-23T14:01:54.286Z,35.57
2018-11-23T14:04:22.018Z,35.37
2018-11-23T14:06:49.742Z,35.37
2018-11-23T14:09:17.453Z,37.33
2018-11-23T14:11:45.138Z,38.50
2018-11-23T14:14:12.799Z,37.40
2018-11-23T14:16:40.510Z,36.97
2018-11-23T14:19:09.250Z,37.00
2018-11-23T14:21:36.933Z,37.40
2018-11-23T14:24:05.035Z,36.73
2018-11-23T14:26:32.733Z,35.40
2018-11-23T14:29:01.437Z,37.87
2018-11-23T14:31:29.097Z,37.50
2018-11-23T14:33:56.808Z,37.77
2018-11-23T14:36:24.545Z,37.07
2018-11-23T14:38:52.305Z,37.63
2018-11-23T14:41:20.033Z,37.20
2018-11-23T14:43:47.749Z,37.23
2018-11-23T14:46:15.485Z,39.03
2018-11-23T14:48:43.212Z,39.90
2018-11-23T14:51:12.961Z,37.20
2018-11-23T14:53:40.705Z,37.87
2018-11-23T14:56:08.380Z,36.30
2018-11-23T14:58:36.131Z,36.57
2018-11-23T15:01:03.814Z,37.40
2018-11-23T15:03:32.485Z,38.67
2018-11-23T15:06:00.179Z,38.83
2018-11-23T15:08:27.936Z,37.93
2018-11-23T15:10:55.669Z,39.70
2018-11-23T15:13:23.374Z,38.13
2018-11-23T15:15:51.847Z,39.20
2018-11-23T15:18:19.761Z,38.13
2018-11-23T15:20:47.449Z,38.30
2018-11-23T15:23:16.885Z,37.70
2018-11-23T15:25:44.631Z,40.47
2018-11-23T15:28:12.856Z,39.00
2018-11-23T15:30:41.130Z,38.60
2018-11-23T15:33:10.084Z,38.10
2018-11-23T15:35:38.207Z,38.87
2018-11-23T15:38:10.264Z,40.40
2018-11-23T15:40:34.393Z,38.00
2018-11-23T15:43:04.621Z,37.97
2018-11-23T15:45:33.225Z,40.03
2018-11-23T15:48:01.401Z,39.00
2018-11-23T15:50:32.467Z,37.70
2018-11-23T15:53:00.178Z,38.00
2018-11-23T15:55:29.097Z,38.80
2018-11-23T15:58:00.386Z,37.17
2018-11-23T16:00:32.313Z,39.47
2018-11-23T16:03:00.153Z,37.67
2018-11-23T16:05:27.902Z,39.40
2018-11-23T16:07:56.525Z,39.47
2018-11-23T16:10:29.805Z,39.43
2018-11-23T16:12:59.337Z,37.83
2018-11-23T16:15:28.449Z,39.50
2018-11-23T16:17:56.469Z,39.80
2018-11-23T16:20:26.189Z,40.17
2018-11-23T16:22:55.284Z,39.80
2018-11-23T16:25:23.124Z,39.37
2018-11-23T16:27:52.309Z,40.33
2018-11-23T16:30:22.259Z,39.40
2018-11-23T16:32:51.049Z,38.07
2018-11-23T16:35:21.183Z,37.07
2018-11-23T16:37:49.193Z,39.90
2018-11-23T16:40:18.385Z,38.77
2018-11-23T16:42:46.121Z,40.17
2018-11-23T16:45:15.908Z,39.30
2018-11-23T16:47:44.113Z,40.90
2018-11-23T16:50:11.953Z,38.77
2018-11-23T16:52:40.435Z,38.57
2018-11-23T16:55:09.135Z,40.23
2018-11-23T16:57:37.127Z,38.73
2018-11-23T17:00:05.874Z,39.10
2018-11-23T17:02:33.645Z,40.80
2018-11-23T17:05:01.371Z,39.30
2018-11-23T17:07:29.098Z,40.43
2018-11-23T17:09:57.165Z,38.47
2018-11-23T17:12:24.865Z,38.90
2018-11-23T17:14:52.857Z,37.90
2018-11-23T17:17:20.266Z,37.50
2018-11-23T17:19:47.967Z,40.07
2018-11-23T17:22:15.746Z,39.40
2018-11-23T17:24:43.486Z,42.47
2018-11-23T17:27:11.154Z,40.70
2018-11-23T17:29:38.902Z,42.63
2018-11-23T17:32:06.574Z,38.87
2018-11-23T17:34:34.241Z,40.30
2018-11-23T17:37:01.992Z,40.40
2018-11-23T17:39:29.705Z,41.80
2018-11-23T17:41:57.449Z,42.87
2018-11-23T17:44:25.237Z,45.63
2018-11-23T17:46:52.988Z,43.00
2018-11-23T17:49:20.726Z,38.30
2018-11-23T17:51:48.382Z,42.90
2018-11-23T17:54:16.053Z,43.13
2018-11-23T17:56:43.796Z,43.10
2018-11-23T17:59:11.497Z,41.10
2018-11-23T18:01:39.229Z,41.77
2018-11-23T18:04:06.905Z,41.50
2018-11-23T18:06:34.575Z,40.60
2018-11-23T18:09:02.666Z,40.13
2018-11-23T18:11:30.397Z,40.83
2018-11-23T18:13:58.187Z,41.20
2018-11-23T18:16:25.926Z,41.13
2018-11-23T18:18:53.624Z,41.57
2018-11-23T18:21:21.345Z,41.30
2018-11-23T18:23:50.030Z,42.60
2018-11-23T18:26:17.721Z,43.60
2018-11-23T18:28:46.385Z,40.40
2018-11-23T18:31:14.067Z,39.67
2018-11-23T18:33:41.819Z,40.73
2018-11-23T18:36:09.569Z,40.30
2018-11-23T18:38:37.234Z,39.93
2018-11-23T18:41:05.237Z,40.70
2018-11-23T18:43:32.957Z,39.70
2018-11-23T18:46:00.629Z,40.43
2018-11-23T18:48:28.293Z,40.80
2018-11-23T18:50:55.990Z,39.80
2018-11-23T18:53:23.713Z,39.97
2018-11-23T18:55:51.597Z,39.03
2018-11-23T18:58:19.337Z,38.87
2018-11-23T19:00:47.005Z,39.97
2018-11-23T19:03:14.713Z,42.60
2018-11-23T19:05:42.433Z,41.63
2018-11-23T19:08:10.139Z,41.60
2018-11-23T19:10:37.777Z,38.53
2018-11-23T19:13:05.772Z,39.50
2018-11-23T19:15:33.570Z,42.10
2018-11-23T19:18:01.311Z,38.37
2018-11-23T19:20:29.026Z,40.17
2018-11-23T19:22:56.701Z,41.30
2018-11-23T19:25:24.446Z,40.73
2018-11-23T19:27:52.133Z,40.30
2018-11-23T19:30:23.522Z,39.93
2018-11-23T19:32:48.157Z,40.70
2018-11-23T19:35:15.839Z,41.33
2018-11-23T19:37:43.576Z,42.47
2018-11-23T19:40:12.696Z,39.83
2018-11-23T19:42:40.496Z,41.13
2018-11-23T19:45:09.889Z,43.70
2018-11-23T19:47:37.662Z,41.00
2018-11-23T19:50:06.979Z,39.63
2018-11-23T19:52:34.687Z,42.80
2018-11-23T19:55:02.435Z,40.97
2018-11-23T19:57:30.139Z,40.17
2018-11-23T19:59:57.908Z,41.70
2018-11-23T20:02:25.610Z,38.70
2018-11-23T20:04:53.313Z,41.37
2018-11-23T20:07:21.066Z,39.23
2018-11-23T20:09:48.822Z,39.70
2018-11-23T20:12:16.506Z,38.90
2018-11-23T20:14:44.232Z,40.30
2018-11-23T20:17:11.929Z,41.10
2018-11-23T20:19:39.669Z,42.37
2018-11-23T20:22:07.461Z,42.07
2018-11-23T20:24:35.206Z,41.73
2018-11-23T20:27:02.870Z,42.70
2018-11-23T20:29:30.554Z,42.00
2018-11-23T20:31:58.305Z,42.53
2018-11-23T20:34:26.085Z,41.57
2018-11-23T20:36:53.810Z,42.23
2018-11-23T20:39:21.470Z,41.90
2018-11-23T20:41:49.170Z,41.07
2018-11-23T20:44:16.897Z,41.50
2018-11-23T20:46:44.595Z,40.43
2018-11-23T20:49:12.322Z,39.67
2018-11-23T20:51:40.005Z,41.33
2018-11-23T20:54:08.670Z,40.80
2018-11-23T20:56:36.337Z,44.03
2018-11-23T20:59:04.075Z,41.33
2018-11-23T21:01:31.802Z,40.90
2018-11-23T21:03:59.535Z,40.57
2018-11-23T21:06:27.229Z,41.63
2018-11-23T21:08:54.893Z,40.00
2018-11-23T21:11:22.640Z,41.57
2018-11-23T21:13:50.373Z,40.33
2018-11-23T21:16:18.049Z,40.70
2018-11-23T21:18:45.777Z,40.40
2018-11-23T21:21:13.476Z,40.03
2018-11-23T21:23:41.221Z,39.97
2018-11-23T21:26:08.912Z,40.20
2018-11-23T21:28:36.657Z,40.80
2018-11-23T21:31:05.367Z,40.63
2018-11-23T21:33:33.105Z,40.87
2018-11-23T21:36:00.799Z,42.63
2018-11-23T21:38:28.540Z,42.13
2018-11-23T21:40:56.213Z,42.50
2018-11-23T21:43:24.877Z,38.53
2018-11-23T21:45:52.566Z,41.47
2018-11-23T21:48:20.309Z,42.40
2018-11-23T21:50:48.021Z,41.03
2018-11-23T21:53:15.658Z,40.80
2018-11-23T21:55:44.313Z,43.10
2018-11-23T21:58:12.009Z,42.37
2018-11-23T22:00:39.741Z,42.13
2018-11-23T22:03:07.425Z,42.07
2018-11-23T22:05:37.127Z,40.80
2018-11-23T22:08:05.798Z,43.43
2018-11-23T22:10:33.533Z,44.80
2018-11-23T22:13:01.228Z,42.30
2018-11-23T22:15:28.916Z,42.50
2018-11-23T22:17:56.893Z,43.90
2018-11-23T22:20:24.976Z,44.97
2018-11-23T22:22:52.693Z,45.70
2018-11-23T22:25:20.847Z,45.97
2018-11-23T22:27:48.545Z,42.90
2018-11-23T22:30:19.001Z,42.97
2018-11-23T22:32:46.733Z,44.77
2018-11-23T22:35:14.397Z,42.43
2018-11-23T22:37:42.081Z,44.27
2018-11-23T22:40:10.470Z,44.77
2018-11-23T22:42:38.246Z,46.13
2018-11-23T22:45:06.849Z,47.50
2018-11-23T22:47:34.556Z,47.40
2018-11-23T22:50:02.246Z,46.60
2018-11-23T22:52:29.993Z,46.70
2018-11-23T22:54:57.654Z,46.87
2018-11-23T22:57:25.406Z,46.13
2018-11-23T22:59:53.070Z,47.90
2018-11-23T23:02:20.824Z,47.37
2018-11-23T23:04:48.492Z,47.20
2018-11-23T23:07:16.170Z,45.70
2018-11-23T23:09:43.932Z,46.10
2018-11-23T23:12:11.662Z,46.13
2018-11-23T23:14:39.348Z,47.00
2018-11-23T23:17:07.086Z,45.60
2018-11-23T23:19:34.770Z,45.10
2018-11-23T23:22:02.517Z,52.27
2018-11-23T23:24:31.234Z,49.10
2018-11-23T23:26:58.889Z,45.43
2018-11-23T23:29:27.589Z,44.67
2018-11-23T23:31:55.333Z,45.00
2018-11-23T23:34:23.128Z,53.57
2018-11-23T23:36:50.869Z,50.20
2018-11-23T23:39:18.621Z,45.67
2018-11-23T23:41:46.383Z,45.00
2018-11-23T23:44:14.065Z,44.80
2018-11-23T23:46:41.851Z,45.13
2018-11-23T23:49:10.590Z,46.03
2018-11-23T23:51:38.342Z,45.17
2018-11-23T23:54:06.005Z,46.70
2018-11-23T23:56:33.682Z,43.00
2018-11-23T23:59:01.373Z,44.00
